Time;durP1;ratioP1;P1;durP2;ratioP2;P2;SDS_P1;SDS_P2;PMS_P1;PMS_P2;Temp;Humidity;BMP_temperature;BMP_pressure;BME280_temperature;BME280_humidity;BME280_pressure;Samples;Min_cycle;Max_cycle;Signal;HPM_P1;HPM_P2
2023/06/16 00:02:06;;;;;;;7.80;4.80;;;;;;;;;;5033346;28;20025;-71
2023/06/16 00:04:32;;;;;;;10.23;4.40;;;;;;;;;;5026500;28;20099;-71
2023/06/16 00:06:59;;;;;;;8.07;4.50;;;;;;;;;;5026949;28;20061;-71
2023/06/16 00:09:27;;;;;;;10.20;5.03;;;;;;;;;;5027488;28;20036;-71
2023/06/16 00:11:53;;;;;;;9.15;4.70;;;;;;;;;;5016182;28;20407;-71
2023/06/16 00:14:19;;;;;;;6.53;4.60;;;;;;;;;;5025177;28;20853;-70
2023/06/16 00:16:45;;;;;;;6.60;4.63;;;;;;;;;;5028072;28;20055;-71
2023/06/16 00:19:10;;;;;;;7.65;5.15;;;;;;;;;;5026973;28;20048;-71
2023/06/16 00:21:41;;;;;;;9.20;5.00;;;;;;;;;;5026807;28;20029;-71
2023/06/16 00:24:08;;;;;;;8.43;5.00;;;;;;;;;;5027289;28;20033;-71
2023/06/16 00:26:34;;;;;;;6.97;5.00;;;;;;;;;;5026799;28;20112;-71
2023/06/16 00:28:59;;;;;;;10.10;5.18;;;;;;;;;;5011818;28;20612;-71
2023/06/16 00:31:25;;;;;;;8.52;5.00;;;;;;;;;;5027386;28;20061;-71
2023/06/16 00:33:51;;;;;;;7.97;4.75;;;;;;;;;;5026560;28;20121;-71
2023/06/16 00:36:17;;;;;;;7.93;4.78;;;;;;;;;;5027027;28;20136;-71
2023/06/16 00:38:42;;;;;;;10.15;5.00;;;;;;;;;;5026435;28;20152;-71
2023/06/16 00:41:07;;;;;;;6.80;4.57;;;;;;;;;;5027274;28;20029;-71
2023/06/16 00:43:33;;;;;;;5.68;4.47;;;;;;;;;;5026781;28;20041;-71
2023/06/16 00:45:58;;;;;;;8.50;4.88;;;;;;;;;;5026343;28;20065;-71
2023/06/16 00:48:23;;;;;;;8.50;5.45;;;;;;;;;;5026823;28;20029;-71
2023/06/16 00:50:49;;;;;;;9.70;4.93;;;;;;;;;;5027033;28;20509;-70
2023/06/16 00:53:16;;;;;;;6.55;4.90;;;;;;;;;;5014693;28;20583;-70
2023/06/16 00:55:42;;;;;;;7.43;5.15;;;;;;;;;;5019153;28;20535;-71
2023/06/16 00:58:07;;;;;;;7.32;5.20;;;;;;;;;;5025732;28;20037;-71
2023/06/16 01:00:36;;;;;;;8.20;4.88;;;;;;;;;;5026456;28;20042;-71
2023/06/16 01:03:05;;;;;;;9.38;5.10;;;;;;;;;;5026398;28;20034;-71
2023/06/16 01:05:32;;;;;;;5.88;4.65;;;;;;;;;;5025787;28;20017;-70
2023/06/16 01:08:41;;;;;;;9.15;4.60;;;;;;;;;;5027058;28;20033;-71
2023/06/16 01:11:12;;;;;;;10.55;5.30;;;;;;;;;;5017176;28;20037;-71
2023/06/16 01:14:01;;;;;;;9.10;5.40;;;;;;;;;;5026259;28;20056;-71
2023/06/16 01:16:30;;;;;;;8.38;5.30;;;;;;;;;;5013457;28;20034;-71
2023/06/16 01:18:58;;;;;;;8.43;5.18;;;;;;;;;;5026625;28;20029;-71
2023/06/16 01:21:38;;;;;;;6.80;5.28;;;;;;;;;;5026779;28;20033;-71
2023/06/16 01:24:14;;;;;;;9.68;5.35;;;;;;;;;;5030204;28;20052;-71
2023/06/16 01:26:44;;;;;;;11.02;5.47;;;;;;;;;;5037322;28;20534;-71
2023/06/16 01:29:12;;;;;;;10.60;5.25;;;;;;;;;;5029088;28;20100;-71
2023/06/16 01:31:40;;;;;;;6.03;5.03;;;;;;;;;;5026067;28;20436;-71
2023/06/16 01:34:07;;;;;;;8.05;4.82;;;;;;;;;;5026210;28;20553;-71
2023/06/16 01:36:36;;;;;;;6.95;5.43;;;;;;;;;;5024709;28;20033;-71
2023/06/16 01:39:02;;;;;;;8.52;4.90;;;;;;;;;;5025172;28;20112;-70
2023/06/16 01:41:28;;;;;;;7.03;5.10;;;;;;;;;;5004467;28;20036;-70
2023/06/16 01:43:55;;;;;;;7.18;4.75;;;;;;;;;;5011450;28;20022;-71
2023/06/16 01:46:21;;;;;;;8.60;5.15;;;;;;;;;;5016419;28;20542;-71
2023/06/16 01:48:47;;;;;;;7.07;4.85;;;;;;;;;;5025025;28;20065;-71
2023/06/16 01:51:14;;;;;;;8.13;5.40;;;;;;;;;;5025821;28;20061;-71
2023/06/16 01:53:39;;;;;;;7.57;4.85;;;;;;;;;;5025506;28;20112;-71
2023/06/16 01:56:04;;;;;;;9.55;5.28;;;;;;;;;;5025660;28;20116;-71
2023/06/16 01:58:30;;;;;;;9.27;5.63;;;;;;;;;;5025136;28;20095;-71
2023/06/16 02:00:59;;;;;;;8.52;5.18;;;;;;;;;;5025099;28;20034;-71
2023/06/16 02:03:50;;;;;;;7.88;5.10;;;;;;;;;;5024114;28;20601;-71
2023/06/16 02:06:25;;;;;;;8.15;4.97;;;;;;;;;;5014308;28;20038;-71
2023/06/16 02:08:53;;;;;;;8.18;5.30;;;;;;;;;;5025453;28;20114;-71
2023/06/16 02:11:19;;;;;;;8.77;5.47;;;;;;;;;;5024134;28;20029;-71
2023/06/16 02:13:45;;;;;;;7.53;5.15;;;;;;;;;;5015995;28;20570;-71
2023/06/16 02:16:11;;;;;;;7.85;4.97;;;;;;;;;;5024601;28;20067;-71
2023/06/16 02:18:37;;;;;;;6.07;4.75;;;;;;;;;;5025146;28;20183;-71
2023/06/16 02:21:02;;;;;;;10.65;4.80;;;;;;;;;;5023579;28;20862;-71
2023/06/16 02:23:28;;;;;;;11.23;5.70;;;;;;;;;;5024602;28;20029;-71
2023/06/16 02:25:53;;;;;;;11.02;5.47;;;;;;;;;;5025654;28;20594;-71
2023/06/16 02:28:18;;;;;;;7.50;5.32;;;;;;;;;;5024357;28;20049;-71
2023/06/16 02:30:44;;;;;;;8.27;5.07;;;;;;;;;;5024734;28;20034;-71
2023/06/16 02:33:12;;;;;;;8.73;6.03;;;;;;;;;;5024480;28;20728;-71
2023/06/16 02:35:38;;;;;;;10.23;5.78;;;;;;;;;;5025119;28;20044;-71
2023/06/16 02:38:03;;;;;;;8.40;5.40;;;;;;;;;;5024640;28;20037;-71
2023/06/16 02:40:28;;;;;;;8.50;5.25;;;;;;;;;;5024674;28;20049;-71
2023/06/16 02:42:54;;;;;;;8.82;5.53;;;;;;;;;;5025065;28;20084;-71
2023/06/16 02:45:20;;;;;;;8.05;5.53;;;;;;;;;;5024436;28;20034;-71
2023/06/16 02:47:45;;;;;;;10.15;5.32;;;;;;;;;;5025477;28;20461;-70
2023/06/16 02:50:10;;;;;;;8.43;5.53;;;;;;;;;;5028241;28;20029;-71
2023/06/16 02:52:36;;;;;;;7.35;5.15;;;;;;;;;;5034390;28;20030;-71
2023/06/16 02:55:01;;;;;;;9.00;5.85;;;;;;;;;;5029168;28;20037;-71
2023/06/16 02:57:27;;;;;;;9.10;5.07;;;;;;;;;;5024451;28;20056;-71
2023/06/16 02:59:55;;;;;;;9.95;5.43;;;;;;;;;;5024424;28;20038;-71
2023/06/16 03:02:20;;;;;;;9.23;6.13;;;;;;;;;;5024578;28;20087;-70
2023/06/16 03:04:45;;;;;;;8.65;5.45;;;;;;;;;;5023441;28;20037;-71
2023/06/16 03:07:12;;;;;;;9.80;6.00;;;;;;;;;;5024464;28;20033;-71
2023/06/16 03:09:37;;;;;;;11.45;5.78;;;;;;;;;;5024722;28;20053;-70
2023/06/16 03:12:03;;;;;;;10.35;5.70;;;;;;;;;;5023581;28;20067;-71
2023/06/16 03:14:29;;;;;;;9.20;5.78;;;;;;;;;;5027660;28;20083;-71
2023/06/16 03:16:55;;;;;;;8.27;5.35;;;;;;;;;;5028180;28;20394;-71
2023/06/16 03:19:20;;;;;;;8.18;5.13;;;;;;;;;;5026968;28;20037;-71
2023/06/16 03:21:48;;;;;;;13.57;5.47;;;;;;;;;;5020724;28;20033;-71
2023/06/16 03:24:16;;;;;;;8.25;5.30;;;;;;;;;;5028665;28;20118;-71
2023/06/16 03:26:43;;;;;;;9.27;5.40;;;;;;;;;;5028274;28;20045;-70
2023/06/16 03:29:08;;;;;;;9.38;5.53;;;;;;;;;;5024122;28;20032;-70
2023/06/16 03:31:33;;;;;;;12.10;5.60;;;;;;;;;;5026447;28;20030;-71
2023/06/16 03:33:59;;;;;;;10.63;5.72;;;;;;;;;;5015702;28;20125;-71
2023/06/16 03:36:26;;;;;;;8.35;5.97;;;;;;;;;;5027804;28;20697;-71
2023/06/16 03:38:51;;;;;;;9.82;5.80;;;;;;;;;;5028243;28;20096;-71
2023/06/16 03:41:17;;;;;;;8.77;5.55;;;;;;;;;;5027565;28;20116;-71
2023/06/16 03:43:42;;;;;;;7.93;5.50;;;;;;;;;;5027001;28;20055;-71
2023/06/16 03:46:07;;;;;;;9.07;5.82;;;;;;;;;;5028036;28;20025;-71
2023/06/16 03:48:33;;;;;;;13.75;5.55;;;;;;;;;;5027867;28;20549;-71
2023/06/16 03:50:58;;;;;;;9.85;6.05;;;;;;;;;;5027271;28;20048;-71
2023/06/16 03:53:23;;;;;;;8.43;5.63;;;;;;;;;;5027606;28;20044;-71
2023/06/16 03:55:49;;;;;;;10.90;6.18;;;;;;;;;;5028070;28;20084;-70
2023/06/16 03:58:17;;;;;;;9.07;6.03;;;;;;;;;;5027176;28;20694;-71
2023/06/16 04:00:43;;;;;;;9.38;6.05;;;;;;;;;;5026527;28;20592;-71
2023/06/16 04:03:09;;;;;;;13.48;6.55;;;;;;;;;;5022902;28;20045;-70
2023/06/16 04:05:35;;;;;;;10.00;6.55;;;;;;;;;;5027489;28;20116;-70
2023/06/16 04:08:01;;;;;;;9.05;5.70;;;;;;;;;;5026881;28;20467;-71
2023/06/16 04:10:27;;;;;;;9.90;6.00;;;;;;;;;;5030239;28;20029;-71
2023/06/16 04:12:53;;;;;;;10.65;6.35;;;;;;;;;;5028040;28;20037;-71
2023/06/16 04:15:19;;;;;;;10.38;6.22;;;;;;;;;;5028693;28;20120;-70
2023/06/16 04:17:44;;;;;;;8.48;6.18;;;;;;;;;;5030846;28;20053;-70
2023/06/16 04:20:11;;;;;;;9.65;6.53;;;;;;;;;;5038436;28;20064;-71
2023/06/16 04:22:37;;;;;;;9.80;6.47;;;;;;;;;;5031611;28;20503;-71
2023/06/16 04:25:02;;;;;;;13.55;6.75;;;;;;;;;;5027958;28;20040;-70
2023/06/16 04:27:28;;;;;;;9.48;6.22;;;;;;;;;;5027849;28;20132;-70
2023/06/16 04:29:54;;;;;;;10.93;6.53;;;;;;;;;;5026904;28;20496;-71
2023/06/16 04:32:20;;;;;;;13.98;6.40;;;;;;;;;;5038695;28;20029;-70
2023/06/16 04:34:46;;;;;;;10.63;6.60;;;;;;;;;;5027777;28;20148;-71
2023/06/16 04:37:13;;;;;;;9.50;6.55;;;;;;;;;;5032062;28;20044;-71
2023/06/16 04:39:40;;;;;;;9.73;6.63;;;;;;;;;;5030598;28;20033;-71
2023/06/16 04:42:08;;;;;;;8.57;5.97;;;;;;;;;;5026947;28;20034;-71
2023/06/16 04:44:34;;;;;;;10.68;6.22;;;;;;;;;;5026105;28;20067;-70
2023/06/16 04:47:00;;;;;;;10.60;6.60;;;;;;;;;;5027257;28;20555;-71
2023/06/16 04:49:25;;;;;;;15.07;6.20;;;;;;;;;;5026770;28;20044;-70
2023/06/16 04:51:51;;;;;;;9.80;6.30;;;;;;;;;;5026207;28;20041;-71
2023/06/16 04:54:18;;;;;;;11.27;6.72;;;;;;;;;;5027116;28;20891;-71
2023/06/16 04:56:44;;;;;;;11.88;7.05;;;;;;;;;;5026664;28;20034;-70
2023/06/16 04:59:10;;;;;;;12.75;7.25;;;;;;;;;;5026501;28;20079;-71
2023/06/16 05:01:36;;;;;;;11.70;7.40;;;;;;;;;;5026803;28;20095;-71
2023/06/16 05:04:01;;;;;;;11.88;7.07;;;;;;;;;;5025662;28;20046;-70
2023/06/16 05:06:27;;;;;;;11.98;7.25;;;;;;;;;;5026127;28;20115;-71
2023/06/16 05:08:53;;;;;;;15.55;7.55;;;;;;;;;;5026569;28;20040;-70
2023/06/16 05:11:19;;;;;;;13.43;8.05;;;;;;;;;;5026069;28;20410;-70
2023/06/16 05:13:45;;;;;;;11.80;7.20;;;;;;;;;;5026751;28;20074;-71
2023/06/16 05:16:11;;;;;;;15.02;7.18;;;;;;;;;;5025848;28;20033;-71
2023/06/16 05:18:36;;;;;;;12.00;7.30;;;;;;;;;;5020686;28;20314;-70
2023/06/16 05:21:01;;;;;;;12.50;7.65;;;;;;;;;;5014226;28;20557;-71
2023/06/16 05:23:27;;;;;;;14.15;7.78;;;;;;;;;;5025293;28;20021;-71
2023/06/16 05:25:52;;;;;;;13.65;7.60;;;;;;;;;;5026022;28;20075;-71
2023/06/16 05:28:18;;;;;;;14.68;8.38;;;;;;;;;;5011204;28;20072;-71
2023/06/16 05:30:43;;;;;;;11.02;7.78;;;;;;;;;;5002435;28;20068;-70
2023/06/16 05:33:08;;;;;;;14.60;8.10;;;;;;;;;;5015539;28;20310;-72
2023/06/16 05:35:34;;;;;;;13.13;7.53;;;;;;;;;;5024987;28;20029;-73
2023/06/16 05:37:59;;;;;;;15.45;8.82;;;;;;;;;;5025635;28;20584;-71
2023/06/16 05:40:24;;;;;;;15.32;8.63;;;;;;;;;;5026480;28;20037;-72
2023/06/16 05:42:50;;;;;;;16.90;8.90;;;;;;;;;;5025969;28;20426;-72
2023/06/16 05:45:15;;;;;;;14.43;9.15;;;;;;;;;;5022672;28;20034;-72
2023/06/16 05:47:40;;;;;;;16.40;9.48;;;;;;;;;;5037164;28;20044;-71
2023/06/16 05:50:06;;;;;;;15.75;9.32;;;;;;;;;;5013723;28;20021;-70
2023/06/16 05:52:31;;;;;;;17.45;9.60;;;;;;;;;;5025375;28;20620;-71
2023/06/16 05:54:57;;;;;;;16.00;9.98;;;;;;;;;;5024865;28;20184;-70
2023/06/16 05:57:24;;;;;;;14.02;9.70;;;;;;;;;;5025123;28;20029;-71
2023/06/16 05:59:49;;;;;;;17.75;10.07;;;;;;;;;;5023601;28;20084;-70
2023/06/16 06:02:15;;;;;;;19.63;10.20;;;;;;;;;;5025060;28;20495;-70
2023/06/16 06:04:41;;;;;;;16.13;9.70;;;;;;;;;;5023874;28;20038;-70
2023/06/16 06:07:06;;;;;;;15.93;9.38;;;;;;;;;;5023942;28;20136;-70
2023/06/16 06:09:32;;;;;;;17.92;10.13;;;;;;;;;;5013257;28;20048;-71
2023/06/16 06:11:57;;;;;;;14.10;9.35;;;;;;;;;;5018701;28;20431;-70
2023/06/16 06:14:22;;;;;;;13.95;9.45;;;;;;;;;;5015066;28;20029;-70
2023/06/16 06:16:49;;;;;;;16.23;10.45;;;;;;;;;;5023688;28;20079;-71
2023/06/16 06:19:14;;;;;;;17.77;9.30;;;;;;;;;;5014584;28;20041;-71
2023/06/16 06:21:40;;;;;;;13.98;9.50;;;;;;;;;;5012138;28;20511;-71
2023/06/16 06:24:06;;;;;;;14.90;9.10;;;;;;;;;;5022676;28;20041;-71
2023/06/16 06:26:31;;;;;;;15.57;10.13;;;;;;;;;;5013418;28;20698;-71
2023/06/16 06:28:56;;;;;;;14.13;9.68;;;;;;;;;;5025167;28;20033;-71
2023/06/16 06:31:22;;;;;;;15.05;9.70;;;;;;;;;;5017493;28;20037;-71
2023/06/16 06:33:47;;;;;;;18.25;10.38;;;;;;;;;;5022454;28;20037;-71
2023/06/16 06:36:21;;;;;;;16.73;10.23;;;;;;;;;;5012633;28;20037;-71
2023/06/16 06:38:47;;;;;;;17.00;9.50;;;;;;;;;;5014886;28;20041;-71
2023/06/16 06:41:13;;;;;;;18.75;9.90;;;;;;;;;;5009263;28;20593;-71
2023/06/16 06:43:38;;;;;;;16.88;9.02;;;;;;;;;;5011874;28;20048;-71
2023/06/16 06:46:03;;;;;;;28.17;10.73;;;;;;;;;;5020518;28;20467;-71
2023/06/16 06:48:29;;;;;;;14.75;9.38;;;;;;;;;;5021171;28;20495;-71
2023/06/16 06:50:54;;;;;;;14.85;9.43;;;;;;;;;;5019162;28;20060;-71
2023/06/16 06:53:20;;;;;;;13.15;8.93;;;;;;;;;;5021611;28;20100;-71
2023/06/16 06:55:45;;;;;;;20.27;9.50;;;;;;;;;;5022671;28;20529;-71
2023/06/16 06:58:10;;;;;;;19.65;9.57;;;;;;;;;;5022792;28;20045;-71
2023/06/16 07:00:36;;;;;;;16.42;9.40;;;;;;;;;;5020950;28;20037;-71
2023/06/16 07:03:01;;;;;;;15.50;9.63;;;;;;;;;;5023708;28;20037;-71
2023/06/16 07:05:26;;;;;;;21.27;9.18;;;;;;;;;;5023342;28;20037;-71
2023/06/16 07:07:52;;;;;;;13.85;9.38;;;;;;;;;;5024793;28;20076;-71
2023/06/16 07:10:17;;;;;;;17.17;9.52;;;;;;;;;;5019552;28;20088;-71
2023/06/16 07:12:42;;;;;;;15.25;10.00;;;;;;;;;;5024147;28;20034;-71
2023/06/16 07:15:08;;;;;;;13.05;8.73;;;;;;;;;;5032747;28;20043;-71
2023/06/16 07:17:34;;;;;;;16.23;9.52;;;;;;;;;;5025433;28;20034;-71
2023/06/16 07:20:00;;;;;;;13.02;8.48;;;;;;;;;;5025027;28;20493;-70
2023/06/16 07:22:25;;;;;;;14.77;9.68;;;;;;;;;;5022940;28;20041;-72
2023/06/16 07:24:50;;;;;;;15.23;9.73;;;;;;;;;;5020656;28;20040;-72
2023/06/16 07:27:16;;;;;;;16.65;8.40;;;;;;;;;;5018598;28;20128;-71
2023/06/16 07:29:41;;;;;;;12.27;8.75;;;;;;;;;;5013566;28;20046;-71
2023/06/16 07:32:07;;;;;;;19.00;8.95;;;;;;;;;;5015927;28;20025;-71
2023/06/16 07:34:32;;;;;;;14.48;8.85;;;;;;;;;;5022436;28;20040;-71
2023/06/16 07:36:57;;;;;;;15.00;9.05;;;;;;;;;;5019356;28;20042;-71
2023/06/16 07:39:24;;;;;;;12.95;8.57;;;;;;;;;;5016849;28;20042;-71
2023/06/16 07:41:49;;;;;;;16.02;8.65;;;;;;;;;;5023582;28;20112;-71
2023/06/16 07:44:15;;;;;;;13.32;8.70;;;;;;;;;;5012565;28;20033;-72
2023/06/16 07:46:45;;;;;;;13.48;8.82;;;;;;;;;;5004170;28;20049;-71
2023/06/16 07:49:11;;;;;;;13.63;8.32;;;;;;;;;;5014750;28;20045;-72
2023/06/16 07:51:36;;;;;;;12.88;8.18;;;;;;;;;;5023481;28;20037;-72
2023/06/16 07:54:02;;;;;;;15.18;7.93;;;;;;;;;;5019150;28;20041;-71
2023/06/16 07:56:28;;;;;;;13.70;8.00;;;;;;;;;;5006511;28;20514;-71
2023/06/16 07:58:53;;;;;;;14.85;8.07;;;;;;;;;;5017243;28;20077;-72
2023/06/16 08:01:19;;;;;;;13.13;8.25;;;;;;;;;;5021635;28;20029;-72
2023/06/16 08:03:46;;;;;;;18.40;7.85;;;;;;;;;;5026887;28;20458;-72
2023/06/16 08:06:11;;;;;;;10.73;7.55;;;;;;;;;;5023483;28;20054;-71
2023/06/16 08:08:37;;;;;;;13.07;8.40;;;;;;;;;;5017239;28;20053;-71
2023/06/16 08:11:03;;;;;;;11.68;7.22;;;;;;;;;;5026298;28;20017;-72
2023/06/16 08:13:29;;;;;;;12.63;8.18;;;;;;;;;;5026527;28;20075;-71
2023/06/16 08:15:54;;;;;;;12.95;7.80;;;;;;;;;;5026061;28;20760;-71
2023/06/16 08:18:19;;;;;;;12.60;7.53;;;;;;;;;;5026582;28;20037;-72
2023/06/16 08:20:47;;;;;;;12.13;7.72;;;;;;;;;;5026338;28;20033;-71
2023/06/16 08:23:13;;;;;;;13.52;7.63;;;;;;;;;;5026370;28;20029;-72
2023/06/16 08:25:38;;;;;;;12.80;8.32;;;;;;;;;;5026728;28;20038;-71
2023/06/16 08:28:06;;;;;;;15.63;9.15;;;;;;;;;;5020911;28;20125;-71
2023/06/16 08:30:32;;;;;;;12.65;9.23;;;;;;;;;;5034675;28;20044;-70
2023/06/16 08:32:58;;;;;;;14.43;9.05;;;;;;;;;;5013332;28;20038;-70
2023/06/16 08:35:24;;;;;;;11.98;9.00;;;;;;;;;;5010997;28;20115;-71
2023/06/16 08:37:50;;;;;;;14.20;8.55;;;;;;;;;;5017143;28;20053;-70
2023/06/16 08:40:15;;;;;;;12.60;8.45;;;;;;;;;;5025166;28;20072;-72
2023/06/16 08:42:41;;;;;;;13.45;8.82;;;;;;;;;;5026891;28;20084;-73
2023/06/16 08:45:08;;;;;;;15.38;8.90;;;;;;;;;;5012594;28;20052;-73
2023/06/16 08:47:34;;;;;;;13.00;8.48;;;;;;;;;;5026697;28;20479;-73
2023/06/16 08:50:00;;;;;;;15.30;7.70;;;;;;;;;;5026736;28;20072;-74
2023/06/16 08:52:26;;;;;;;11.50;7.03;;;;;;;;;;5025267;28;20079;-73
2023/06/16 08:54:57;;;;;;;14.70;7.88;;;;;;;;;;5025630;28;20465;-73
2023/06/16 08:57:24;;;;;;;14.98;7.85;;;;;;;;;;5026758;28;20045;-73
2023/06/16 08:59:55;;;;;;;17.63;8.63;;;;;;;;;;5024763;28;20095;-73
2023/06/16 09:02:21;;;;;;;11.60;6.13;;;;;;;;;;5019126;28;20029;-73
2023/06/16 09:04:47;;;;;;;8.70;6.03;;;;;;;;;;5026458;28;20820;-73
2023/06/16 09:07:19;;;;;;;8.27;4.68;;;;;;;;;;5025157;28;20037;-73
2023/06/16 09:09:45;;;;;;;8.70;6.15;;;;;;;;;;5013901;28;20044;-73
2023/06/16 09:12:11;;;;;;;9.73;6.10;;;;;;;;;;5019413;28;20497;-72
2023/06/16 09:14:37;;;;;;;9.32;5.70;;;;;;;;;;5017130;28;20034;-73
2023/06/16 09:17:07;;;;;;;12.73;5.95;;;;;;;;;;5003771;28;20033;-71
2023/06/16 09:19:35;;;;;;;9.38;5.53;;;;;;;;;;5016138;28;20049;-72
2023/06/16 09:22:02;;;;;;;8.63;5.28;;;;;;;;;;5011634;28;20068;-72
2023/06/16 09:24:28;;;;;;;9.18;5.32;;;;;;;;;;5019292;28;20049;-73
2023/06/16 09:26:59;;;;;;;10.10;5.30;;;;;;;;;;5020835;28;20096;-72
2023/06/16 09:29:26;;;;;;;6.40;5.10;;;;;;;;;;5025480;28;20082;-72
2023/06/16 09:31:52;;;;;;;8.85;5.47;;;;;;;;;;5015987;28;20037;-72
2023/06/16 09:34:18;;;;;;;10.10;5.80;;;;;;;;;;5010931;28;20046;-72
2023/06/16 09:36:43;;;;;;;7.55;5.13;;;;;;;;;;5009655;28;20038;-72
2023/06/16 09:39:25;;;;;;;9.13;4.85;;;;;;;;;;5013814;28;20042;-72
2023/06/16 09:41:51;;;;;;;8.77;5.30;;;;;;;;;;4997807;28;20458;-71
2023/06/16 09:44:17;;;;;;;8.27;5.22;;;;;;;;;;4997948;28;20487;-71
2023/06/16 09:46:43;;;;;;;7.75;4.97;;;;;;;;;;5011427;28;20089;-71
2023/06/16 09:49:22;;;;;;;12.90;5.60;;;;;;;;;;5011873;28;20057;-71
2023/06/16 09:51:52;;;;;;;7.68;4.93;;;;;;;;;;5017269;28;20056;-71
2023/06/16 09:54:19;;;;;;;6.82;4.88;;;;;;;;;;5020696;28;20046;-71
2023/06/16 09:56:45;;;;;;;7.00;5.20;;;;;;;;;;5023119;28;20030;-71
2023/06/16 09:59:11;;;;;;;8.82;4.65;;;;;;;;;;5025746;28;20034;-71
2023/06/16 10:01:40;;;;;;;8.57;4.97;;;;;;;;;;5012001;28;20034;-70
2023/06/16 10:04:09;;;;;;;6.88;5.22;;;;;;;;;;5014264;28;20041;-70
2023/06/16 10:06:40;;;;;;;6.82;5.13;;;;;;;;;;5026173;28;20076;-70
2023/06/16 10:09:09;;;;;;;8.48;5.25;;;;;;;;;;5018301;28;20475;-70
2023/06/16 10:11:37;;;;;;;8.82;5.03;;;;;;;;;;5001086;28;20014;-70
2023/06/16 10:14:07;;;;;;;7.00;5.00;;;;;;;;;;5015337;28;20373;-72
2023/06/16 10:16:35;;;;;;;7.15;5.00;;;;;;;;;;5011597;28;20026;-71
2023/06/16 10:19:02;;;;;;;7.07;4.78;;;;;;;;;;5010942;28;20073;-72
2023/06/16 10:21:29;;;;;;;7.65;4.70;;;;;;;;;;5016275;28;20037;-74
2023/06/16 10:23:54;;;;;;;7.97;4.40;;;;;;;;;;5025106;28;20033;-71
2023/06/16 10:26:20;;;;;;;4.97;3.90;;;;;;;;;;5024599;28;20068;-70
2023/06/16 10:28:46;;;;;;;7.00;4.15;;;;;;;;;;5029022;28;20028;-71
2023/06/16 10:31:12;;;;;;;10.82;4.60;;;;;;;;;;5014687;28;20030;-71
2023/06/16 10:33:57;;;;;;;6.45;4.53;;;;;;;;;;5020920;28;20726;-71
2023/06/16 10:36:36;;;;;;;6.05;4.55;;;;;;;;;;5013497;28;20038;-71
2023/06/16 10:39:16;;;;;;;5.53;4.25;;;;;;;;;;5024521;28;20111;-71
2023/06/16 10:41:51;;;;;;;8.68;4.95;;;;;;;;;;5024261;28;20040;-71
2023/06/16 10:44:24;;;;;;;7.38;4.43;;;;;;;;;;5023479;28;20021;-71
2023/06/16 10:47:07;;;;;;;6.97;4.55;;;;;;;;;;5019446;28;20088;-71
2023/06/16 10:49:43;;;;;;;8.10;4.88;;;;;;;;;;5017403;28;20856;-71
2023/06/16 10:52:09;;;;;;;7.60;4.93;;;;;;;;;;5011012;28;20060;-71
2023/06/16 10:54:37;;;;;;;7.18;4.82;;;;;;;;;;5019416;28;20049;-71
2023/06/16 10:57:02;;;;;;;7.82;4.72;;;;;;;;;;5015989;28;20498;-70
2023/06/16 10:59:28;;;;;;;7.97;4.28;;;;;;;;;;5021662;28;20069;-71
2023/06/16 11:01:58;;;;;;;8.63;4.70;;;;;;;;;;5017477;28;20025;-71
2023/06/16 11:04:24;;;;;;;5.63;4.55;;;;;;;;;;5021884;28;20060;-71
2023/06/16 11:07:05;;;;;;;7.97;4.43;;;;;;;;;;5023932;28;20124;-71
2023/06/16 11:09:32;;;;;;;5.88;4.30;;;;;;;;;;5023632;28;20126;-71
2023/06/16 11:11:58;;;;;;;5.97;4.35;;;;;;;;;;5023769;28;20455;-71
2023/06/16 11:14:25;;;;;;;6.82;4.53;;;;;;;;;;5023260;28;20023;-71
2023/06/16 11:16:50;;;;;;;7.15;4.53;;;;;;;;;;5023562;28;20018;-71
2023/06/16 11:19:19;;;;;;;7.43;4.78;;;;;;;;;;5023870;28;20037;-71
2023/06/16 11:21:45;;;;;;;7.25;4.82;;;;;;;;;;5023740;28;20057;-71
2023/06/16 11:24:11;;;;;;;7.10;4.90;;;;;;;;;;5023659;28;20049;-71
2023/06/16 11:26:37;;;;;;;5.78;4.30;;;;;;;;;;5018522;28;20029;-71
2023/06/16 11:29:08;;;;;;;8.63;5.07;;;;;;;;;;5016665;28;20033;-71
2023/06/16 11:31:37;;;;;;;10.82;4.95;;;;;;;;;;5021315;28;20061;-71
2023/06/16 11:34:03;;;;;;;7.10;5.05;;;;;;;;;;5035742;28;20063;-71
2023/06/16 11:36:29;;;;;;;8.20;5.00;;;;;;;;;;5027354;28;20419;-72
2023/06/16 11:38:58;;;;;;;11.48;4.80;;;;;;;;;;5027561;28;20034;-71
2023/06/16 11:41:29;;;;;;;8.90;4.30;;;;;;;;;;5027589;28;20939;-71
2023/06/16 11:43:55;;;;;;;7.32;4.72;;;;;;;;;;5026740;28;20509;-72
2023/06/16 11:46:28;;;;;;;7.00;4.72;;;;;;;;;;5022800;28;20045;-72
2023/06/16 11:48:54;;;;;;;6.95;4.82;;;;;;;;;;5014195;28;20522;-72
2023/06/16 11:51:20;;;;;;;8.77;5.18;;;;;;;;;;5021124;28;20037;-72
2023/06/16 11:53:46;;;;;;;9.63;5.03;;;;;;;;;;5026999;28;20040;-72
2023/06/16 11:56:14;;;;;;;6.55;5.03;;;;;;;;;;5027630;28;20021;-72
2023/06/16 11:58:40;;;;;;;6.63;4.57;;;;;;;;;;5026489;28;20570;-72
2023/06/16 12:01:06;;;;;;;9.45;5.47;;;;;;;;;;5026707;28;20037;-72
2023/06/16 12:03:36;;;;;;;7.00;5.13;;;;;;;;;;5026366;28;20058;-71
2023/06/16 12:06:03;;;;;;;10.43;5.20;;;;;;;;;;5027021;28;20057;-72
2023/06/16 12:08:45;;;;;;;12.20;5.70;;;;;;;;;;5027676;28;20094;-72
2023/06/16 12:11:13;;;;;;;5.68;5.07;;;;;;;;;;5021842;28;20033;-71
2023/06/16 12:13:39;;;;;;;5.47;4.90;;;;;;;;;;5016650;28;20516;-71
2023/06/16 12:16:06;;;;;;;6.90;5.15;;;;;;;;;;5019865;28;20034;-72
2023/06/16 12:18:32;;;;;;;7.60;5.32;;;;;;;;;;5025345;28;20133;-72
2023/06/16 12:20:57;;;;;;;6.53;5.60;;;;;;;;;;5026889;28;20108;-72
2023/06/16 12:23:22;;;;;;;6.85;5.07;;;;;;;;;;5027227;28;20820;-71
2023/06/16 12:25:49;;;;;;;9.27;5.40;;;;;;;;;;5028060;28;20046;-72
2023/06/16 12:28:21;;;;;;;7.18;4.53;;;;;;;;;;5023266;28;20037;-71
2023/06/16 12:30:47;;;;;;;7.33;4.97;;;;;;;;;;5008459;28;20056;-72
2023/06/16 12:33:13;;;;;;;6.35;5.10;;;;;;;;;;5018909;28;20033;-73
2023/06/16 12:35:41;;;;;;;6.30;5.28;;;;;;;;;;5027373;28;20111;-73
2023/06/16 12:38:06;;;;;;;7.22;5.20;;;;;;;;;;5027604;28;20035;-73
2023/06/16 12:40:32;;;;;;;6.25;5.20;;;;;;;;;;5012113;28;20037;-73
2023/06/16 12:43:20;;;;;;;11.13;5.15;;;;;;;;;;5024091;28;20111;-73
2023/06/16 12:45:45;;;;;;;5.60;4.75;;;;;;;;;;5015453;28;20041;-72
2023/06/16 12:48:10;;;;;;;6.35;4.95;;;;;;;;;;5021190;28;20052;-73
2023/06/16 12:50:36;;;;;;;5.90;4.70;;;;;;;;;;5026955;28;20037;-73
2023/06/16 12:53:01;;;;;;;6.90;5.10;;;;;;;;;;5027935;28;20025;-73
2023/06/16 12:55:27;;;;;;;6.20;4.88;;;;;;;;;;5027785;28;20044;-73
2023/06/16 12:57:52;;;;;;;5.65;4.60;;;;;;;;;;5031258;28;20044;-74
2023/06/16 13:00:18;;;;;;;5.75;4.78;;;;;;;;;;5038254;28;20096;-73
2023/06/16 13:02:43;;;;;;;5.68;4.78;;;;;;;;;;5033206;28;20056;-73
2023/06/16 13:05:08;;;;;;;6.05;4.47;;;;;;;;;;5028858;28;20502;-73
2023/06/16 13:07:34;;;;;;;8.02;4.47;;;;;;;;;;5026349;28;20108;-73
2023/06/16 13:09:59;;;;;;;7.38;4.68;;;;;;;;;;5026780;28;20462;-73
2023/06/16 13:12:24;;;;;;;8.05;4.70;;;;;;;;;;5014652;28;20029;-73
2023/06/16 13:14:50;;;;;;;9.27;4.50;;;;;;;;;;5027298;28;20057;-73
2023/06/16 13:17:16;;;;;;;8.15;4.60;;;;;;;;;;5027053;28;20021;-72
2023/06/16 13:19:41;;;;;;;6.72;4.60;;;;;;;;;;5025379;28;20091;-73
2023/06/16 13:22:07;;;;;;;10.23;4.70;;;;;;;;;;5009678;28;20038;-73
2023/06/16 13:24:32;;;;;;;7.97;4.50;;;;;;;;;;5017735;28;20043;-73
2023/06/16 13:26:57;;;;;;;8.82;4.57;;;;;;;;;;5026245;28;20030;-73
2023/06/16 13:29:23;;;;;;;6.45;4.65;;;;;;;;;;5026635;28;20029;-73
2023/06/16 13:31:48;;;;;;;12.45;4.60;;;;;;;;;;5025674;28;20519;-73
2023/06/16 13:34:13;;;;;;;5.90;4.80;;;;;;;;;;5021198;28;20037;-73
2023/06/16 13:36:39;;;;;;;6.97;4.95;;;;;;;;;;5026285;28;20034;-73
2023/06/16 13:39:05;;;;;;;16.77;4.50;;;;;;;;;;5026767;28;20032;-73
2023/06/16 13:41:30;;;;;;;5.45;4.43;;;;;;;;;;5014968;28;20033;-72
2023/06/16 13:43:56;;;;;;;5.47;4.75;;;;;;;;;;5024442;28;20048;-72
2023/06/16 13:46:21;;;;;;;8.02;4.32;;;;;;;;;;5020955;28;20095;-74
2023/06/16 13:48:47;;;;;;;7.18;4.75;;;;;;;;;;5025843;28;20091;-73
2023/06/16 13:51:13;;;;;;;7.85;4.68;;;;;;;;;;5023023;28;20065;-72
2023/06/16 13:53:39;;;;;;;6.70;4.55;;;;;;;;;;5021217;28;20117;-73
2023/06/16 13:56:05;;;;;;;6.50;4.60;;;;;;;;;;5020200;28;20017;-74
2023/06/16 13:58:30;;;;;;;4.80;4.30;;;;;;;;;;5024707;28;20093;-74
2023/06/16 14:00:55;;;;;;;5.97;4.78;;;;;;;;;;5017148;28;20029;-72
2023/06/16 14:03:21;;;;;;;5.93;4.45;;;;;;;;;;5017382;28;20073;-73
2023/06/16 14:05:47;;;;;;;6.05;5.00;;;;;;;;;;5025313;28;20091;-73
2023/06/16 14:08:12;;;;;;;5.05;4.55;;;;;;;;;;5025736;28;20043;-75
2023/06/16 14:10:37;;;;;;;4.97;4.20;;;;;;;;;;5022517;28;20049;-74
2023/06/16 14:13:03;;;;;;;5.28;4.78;;;;;;;;;;5019545;28;20048;-74
2023/06/16 14:15:28;;;;;;;4.88;4.43;;;;;;;;;;5017770;28;20042;-74
2023/06/16 14:17:54;;;;;;;5.07;4.57;;;;;;;;;;5025016;28;20079;-75
2023/06/16 14:20:20;;;;;;;5.82;4.35;;;;;;;;;;5016330;28;20118;-74
2023/06/16 14:22:45;;;;;;;6.93;3.97;;;;;;;;;;5026622;28;20063;-74
2023/06/16 14:25:12;;;;;;;32.63;13.63;;;;;;;;;;5030507;28;20360;-74
2023/06/16 14:27:37;;;;;;;5.65;4.38;;;;;;;;;;5032153;28;20067;-74
2023/06/16 14:30:06;;;;;;;6.10;4.38;;;;;;;;;;5022992;28;20037;-75
2023/06/16 14:32:32;;;;;;;6.75;4.43;;;;;;;;;;5010320;28;20124;-70
2023/06/16 14:34:57;;;;;;;5.10;4.10;;;;;;;;;;5021837;28;20117;-74
2023/06/16 14:37:22;;;;;;;4.50;3.95;;;;;;;;;;5024295;28;20461;-75